This is the latest recevied weather packets stored in our database for station/object G6FCI. If no packets are shown the sender has not sent any weather packets the latest 10 day(s).
| Time | Temp. | Humidity | Pressure | Rain* | Wind** | Luminosity | Snow |
|---|---|---|---|---|---|---|---|
| 1777285104 | 12.22° C | 74% | 1026.5 hPa | 0 mm | - | - | - |
| 1777283103 | 11.11° C | 75% | 1026.5 hPa | 0 mm | - | - | - |
| 1777275903 | 10.56° C | 76% | 1026 hPa | 0 mm | - | - | - |
| 1777265103 | 9.44° C | 75% | 1025.3 hPa | 0 mm | - | - | - |
| 1777260963 | 9.44° C | 74% | 1025 hPa | 0 mm | - | - | - |
| 1777259343 | 10° C | 74% | 1024.9 hPa | 0 mm | - | - | - |
| 1777256823 | 10° C | 74% | 1024.8 hPa | 0 mm | - | - | - |
| 1777256283 | 10° C | 74% | 1024.9 hPa | 0 mm | - | - | - |
| 1777254324 | 10° C | 74% | 1024.9 hPa | 0 mm | - | - | - |
| 1777253223 | 10° C | 74% | 1024.8 hPa | 0 mm | - | - | - |
| 1777252683 | 10° C | 74% | 1024.9 hPa | 0 mm | - | - | - |
| 1777251243 | 10° C | 74% | 1024.9 hPa | 0 mm | - | - | - |
| 1777248543 | 10° C | 73% | 1024.8 hPa | 0 mm | - | - | - |
| 1777246563 | 10.56° C | 72% | 1024.9 hPa | 0 mm | - | - | - |
| 1777245483 | 11.11° C | 72% | 1024.7 hPa | 0 mm | - | - | - |
| 1777240443 | 11.67° C | 70% | 1024.2 hPa | 0 mm | - | - | - |
| 1777238283 | 12.22° C | 69% | 1024.2 hPa | 0 mm | - | - | - |
| 1777237743 | 12.78° C | 70% | 1024.2 hPa | 0 mm | - | - | - |
| 1777229664 | 13.89° C | 83% | 1023.3 hPa | 0 mm | - | - | - |
| 1777226424 | 14.44° C | 83% | 1023.2 hPa | 0 mm | - | - | - |
| 1777224963 | 14.44° C | 83% | 1023.2 hPa | 0 mm | - | - | - |
| 1777218843 | 16.11° C | 82% | 1023.3 hPa | 0 mm | - | - | - |
| 1777215603 | 17.22° C | 82% | 1023.6 hPa | 0 mm | - | - | - |
| 1777214163 | 17.22° C | 83% | 1023.5 hPa | 0 mm | - | - | - |
| 1777210563 | 20° C | 74% | 1023.7 hPa | 0 mm | - | - | - |
* Rain latest hour (hover to see other rain measurements)
** Current wind speed in m/s (hover to see current wind gust speed)